Time;durP1;ratioP1;P1;durP2;ratioP2;P2;SDS_P1;SDS_P2;PMS_P1;PMS_P2;Temp;Humidity;BMP_temperature;BMP_pressure;BME280_temperature;BME280_humidity;BME280_pressure;Samples;Min_cycle;Max_cycle;Signal;HPM_P1;HPM_P2
2022/10/18 00:01:01;;;;;;;10.50;9.20;;;;;;;9.41;96.33;98960.88;105486;1316;22196;-87
2022/10/18 00:03:38;;;;;;;13.20;10.20;;;;;;;9.41;96.28;98961.95;105241;1324;22189;-86
2022/10/18 00:06:10;;;;;;;14.30;9.90;;;;;;;9.39;96.86;98962.21;105415;1323;22360;-89
2022/10/18 00:08:38;;;;;;;11.80;9.80;;;;;;;9.34;96.64;98964.52;105118;1324;22200;-87
2022/10/18 00:11:06;;;;;;;11.00;9.10;;;;;;;9.32;96.86;98964.02;105432;1323;22350;-89
2022/10/18 00:13:35;;;;;;;13.40;9.00;;;;;;;9.31;96.99;98968.38;105607;1317;22184;-89
2022/10/18 00:16:09;;;;;;;17.70;9.70;;;;;;;9.30;96.91;98965.52;105572;1315;22845;-87
2022/10/18 00:18:36;;;;;;;11.70;9.00;;;;;;;9.28;96.50;98966.54;105804;1317;22301;-87
2022/10/18 00:21:07;;;;;;;10.90;9.00;;;;;;;9.23;96.66;98967.10;105233;1324;22189;-88
2022/10/18 00:23:35;;;;;;;12.10;9.40;;;;;;;9.24;96.94;98966.09;105400;1324;22195;-85
2022/10/18 00:26:13;;;;;;;11.90;9.40;;;;;;;9.26;96.87;98966.73;105265;1324;22926;-87
2022/10/18 00:28:42;;;;;;;13.00;10.20;;;;;;;9.27;96.72;98966.48;105824;1309;22115;-85
2022/10/18 00:31:17;;;;;;;9.80;8.60;;;;;;;9.27;96.52;98969.06;105808;1302;22198;-87
2022/10/18 00:33:48;;;;;;;14.00;10.50;;;;;;;9.22;96.98;98969.31;105418;1323;22229;-88
2022/10/18 00:36:16;;;;;;;12.80;11.10;;;;;;;9.20;97.19;98961.73;105620;1317;22100;-87
2022/10/18 00:38:45;;;;;;;14.40;10.80;;;;;;;9.15;97.00;98959.70;105005;1319;22293;-87
2022/10/18 00:41:18;;;;;;;12.90;11.70;;;;;;;9.09;96.96;98958.67;105228;1324;22183;-87
2022/10/18 00:43:57;;;;;;;16.10;12.40;;;;;;;9.10;97.53;98959.15;105827;1316;22162;-86
2022/10/18 00:46:29;;;;;;;18.40;12.80;;;;;;;9.22;96.97;98963.98;105414;1324;22112;-88
2022/10/18 00:49:00;;;;;;;13.80;12.20;;;;;;;9.26;96.88;98963.98;104984;1324;22199;-88
2022/10/18 00:51:34;;;;;;;17.30;13.10;;;;;;;9.35;97.39;98967.20;105297;1324;22205;-87
2022/10/18 00:54:03;;;;;;;14.10;12.70;;;;;;;9.60;97.85;98964.95;105396;1324;22300;-88
2022/10/18 00:56:32;;;;;;;47.00;42.60;;;;;;;9.80;97.40;98965.31;105410;1324;22323;-90
2022/10/18 00:59:00;;;;;;;18.40;15.80;;;;;;;9.95;96.67;98960.42;105209;1324;22220;-89
2022/10/18 01:01:28;;;;;;;18.00;13.30;;;;;;;10.02;96.68;98956.98;105425;1324;22196;-86
2022/10/18 01:03:56;;;;;;;18.60;12.90;;;;;;;10.03;95.91;98955.33;105232;1324;22229;-87
2022/10/18 01:06:27;;;;;;;16.20;12.20;;;;;;;9.90;95.34;98958.38;105824;1299;22846;-89
2022/10/18 01:09:06;;;;;;;14.50;12.30;;;;;;;9.79;95.47;98958.48;105425;1324;22258;-88
2022/10/18 01:11:43;;;;;;;16.80;13.40;;;;;;;9.74;95.70;98958.41;105558;1317;22196;-88
2022/10/18 01:14:25;;;;;;;15.80;14.10;;;;;;;9.73;96.02;98957.50;105806;1309;22963;-88
2022/10/18 01:16:56;;;;;;;17.50;15.00;;;;;;;9.74;95.78;98953.79;105578;1317;22968;-86
2022/10/18 01:19:47;;;;;;;17.90;16.10;;;;;;;9.75;95.30;98952.22;105820;1309;22179;-89
2022/10/18 01:22:26;;;;;;;22.20;19.80;;;;;;;9.70;94.96;98951.84;105391;1323;22274;-88
2022/10/18 01:24:57;;;;;;;23.20;19.40;;;;;;;9.66;94.85;98953.02;105227;1324;22194;-88
2022/10/18 01:27:42;;;;;;;16.20;14.30;;;;;;;9.63;94.64;98951.18;105818;1317;22104;-88
2022/10/18 01:30:36;;;;;;;60.00;54.30;;;;;;;9.59;94.53;98953.00;105074;1324;22925;-87
2022/10/18 01:33:19;;;;;;;20.30;18.20;;;;;;;9.62;94.46;98952.63;105064;1324;22174;-88
2022/10/18 01:35:53;;;;;;;17.90;16.00;;;;;;;9.62;94.42;98952.41;105337;1324;22250;-89
2022/10/18 01:38:24;;;;;;;15.90;14.20;;;;;;;9.58;94.23;98951.83;105406;1318;22188;-89
2022/10/18 01:40:54;;;;;;;17.00;15.00;;;;;;;9.50;94.01;98952.13;105201;1324;22145;-88
2022/10/18 01:43:23;;;;;;;17.90;14.10;;;;;;;9.51;95.09;98945.89;105423;1323;22102;-89
2022/10/18 01:45:54;;;;;;;18.70;13.60;;;;;;;9.55;94.97;98943.05;105415;1323;22114;-87
2022/10/18 01:48:22;;;;;;;17.40;13.20;;;;;;;9.56;94.61;98940.94;105755;1315;22176;-86
2022/10/18 01:50:51;;;;;;;16.20;13.10;;;;;;;9.54;94.91;98939.61;105798;1309;22204;-88
2022/10/18 01:53:25;;;;;;;17.20;13.20;;;;;;;9.54;95.02;98939.17;105848;1309;22185;-85
2022/10/18 01:56:40;;;;;;;16.80;14.80;;;;;;;9.52;94.81;98938.83;105471;1324;22228;-86
2022/10/18 01:59:08;;;;;;;18.90;14.60;;;;;;;9.50;95.05;98936.46;104824;1324;22112;-87
2022/10/18 02:01:45;;;;;;;18.60;13.60;;;;;;;9.54;95.34;98930.83;105676;1317;22076;-86
2022/10/18 02:04:32;;;;;;;16.40;13.50;;;;;;;9.58;94.86;98931.33;105733;1305;22204;-83
2022/10/18 02:07:08;;;;;;;16.20;14.50;;;;;;;9.65;95.32;98934.92;105203;1324;22182;-86
2022/10/18 02:09:45;;;;;;;15.50;13.90;;;;;;;9.72;95.12;98933.60;105214;1324;22207;-87
2022/10/18 02:12:15;;;;;;;17.40;14.60;;;;;;;9.88;95.49;98932.16;105425;1322;22098;-88
2022/10/18 02:14:44;;;;;;;16.70;13.20;;;;;;;10.07;95.08;98923.55;105518;1301;22077;-88
2022/10/18 02:17:15;;;;;;;16.50;14.00;;;;;;;10.23;94.78;98928.70;105330;1324;22150;-88
2022/10/18 02:19:52;;;;;;;14.90;13.00;;;;;;;10.31;94.02;98923.34;105338;1324;22228;-89
2022/10/18 02:22:24;;;;;;;17.00;13.60;;;;;;;10.45;93.49;98922.99;104936;1324;22170;-88
2022/10/18 02:24:56;;;;;;;18.80;12.90;;;;;;;10.58;92.99;98923.61;105504;1317;22086;-89
2022/10/18 02:27:24;;;;;;;17.80;11.60;;;;;;;10.75;92.63;98920.98;105314;1324;22829;-84
2022/10/18 02:29:52;;;;;;;14.80;11.90;;;;;;;10.91;92.36;98925.07;105214;1324;22207;-88
2022/10/18 02:32:31;;;;;;;15.30;11.80;;;;;;;11.03;91.88;98921.84;105428;1324;22106;-88
2022/10/18 02:35:10;;;;;;;17.20;13.10;;;;;;;11.15;91.43;98920.97;105524;1323;22125;-86
2022/10/18 02:37:39;;;;;;;14.50;11.20;;;;;;;11.22;91.41;98919.85;105516;1318;22114;-88
2022/10/18 02:40:09;;;;;;;20.30;11.20;;;;;;;11.26;91.04;98917.73;105487;1306;22116;-85
2022/10/18 02:42:46;;;;;;;14.60;12.20;;;;;;;11.28;91.10;98913.58;105276;1319;22116;-89
2022/10/18 02:45:15;;;;;;;14.50;12.70;;;;;;;11.24;90.73;98913.65;105475;1321;22142;-88
2022/10/18 02:47:43;;;;;;;14.00;12.60;;;;;;;11.14;90.68;98912.45;105306;1324;22164;-87
2022/10/18 02:50:12;;;;;;;13.70;12.30;;;;;;;11.04;90.39;98914.08;105075;1323;22786;-87
2022/10/18 02:52:40;;;;;;;12.40;11.00;;;;;;;10.94;90.51;98917.45;105052;1323;22150;-87
2022/10/18 02:55:08;;;;;;;14.10;11.90;;;;;;;10.84;90.31;98921.37;105852;1299;22781;-87
2022/10/18 02:57:36;;;;;;;15.40;11.60;;;;;;;10.79;90.49;98919.77;105809;1317;22182;-89
2022/10/18 03:00:05;;;;;;;14.50;11.40;;;;;;;10.79;90.76;98913.63;105724;1317;22143;-88
2022/10/18 03:02:33;;;;;;;13.90;11.20;;;;;;;10.79;90.59;98913.66;105260;1324;22111;-87
2022/10/18 03:05:01;;;;;;;13.50;12.10;;;;;;;10.75;90.43;98911.75;105519;1317;22124;-89
2022/10/18 03:07:29;;;;;;;14.70;12.30;;;;;;;10.66;90.16;98912.85;105886;1317;22197;-89
2022/10/18 03:09:58;;;;;;;15.60;12.20;;;;;;;10.62;90.11;98914.05;105341;1324;22135;-89
2022/10/18 03:12:26;;;;;;;17.00;10.90;;;;;;;10.60;89.87;98913.46;105115;1324;22355;-88
2022/10/18 03:14:54;;;;;;;15.80;11.40;;;;;;;10.52;89.54;98913.43;105738;1317;22233;-89
2022/10/18 03:17:22;;;;;;;14.50;12.20;;;;;;;10.37;89.04;98911.80;105652;1324;22192;-91
2022/10/18 03:19:50;;;;;;;15.70;12.50;;;;;;;10.21;88.60;98909.65;105699;1309;22223;-90
2022/10/18 03:22:18;;;;;;;17.30;13.70;;;;;;;10.03;88.78;98914.92;105579;1308;22103;-91
2022/10/18 03:24:46;;;;;;;15.00;11.30;;;;;;;9.88;88.95;98912.41;106094;1312;22261;-85
2022/10/18 03:27:14;;;;;;;14.50;11.70;;;;;;;9.81;88.67;98910.45;105697;1315;22360;-89
2022/10/18 03:29:42;;;;;;;13.30;10.70;;;;;;;9.72;88.83;98916.64;105195;1324;22222;-93
2022/10/18 03:32:10;;;;;;;13.70;12.10;;;;;;;9.61;88.30;98913.83;105266;1324;22196;-89
2022/10/18 03:34:38;;;;;;;14.00;12.60;;;;;;;9.38;88.10;98916.69;105207;1324;22247;-92
2022/10/18 03:37:06;;;;;;;23.80;21.60;;;;;;;9.27;88.97;98913.33;105436;1318;22238;-86
2022/10/18 03:39:34;;;;;;;18.90;17.00;;;;;;;9.23;88.84;98912.73;105523;1324;22261;-81
2022/10/18 03:42:02;;;;;;;17.70;14.80;;;;;;;9.21;88.79;98911.23;105982;1317;22075;-89
2022/10/18 03:44:30;;;;;;;16.80;14.90;;;;;;;9.17;88.59;98911.21;105935;1315;22165;-89
2022/10/18 03:46:58;;;;;;;16.20;12.90;;;;;;;9.14;88.95;98909.79;105494;1324;22776;-85
2022/10/18 03:49:26;;;;;;;17.80;12.90;;;;;;;9.19;88.90;98912.07;105135;1324;22222;-89
2022/10/18 03:51:53;;;;;;;16.30;14.50;;;;;;;9.22;89.03;98912.89;105887;1317;22188;-85
2022/10/18 03:54:21;;;;;;;18.00;14.10;;;;;;;9.19;88.73;98913.69;105746;1308;22727;-88
2022/10/18 03:56:49;;;;;;;17.30;14.30;;;;;;;9.15;88.58;98913.72;105932;1309;22211;-86
2022/10/18 03:59:17;;;;;;;15.70;13.80;;;;;;;9.05;88.28;98909.93;105131;1324;22118;-88
2022/10/18 04:01:45;;;;;;;12.80;11.40;;;;;;;8.89;87.99;98908.48;105712;1309;22253;-88
2022/10/18 04:04:13;;;;;;;20.90;13.80;;;;;;;8.69;88.54;98915.21;105395;1324;22808;-88
2022/10/18 04:06:41;;;;;;;15.30;13.30;;;;;;;8.53;88.17;98916.25;105677;1312;22964;-89
2022/10/18 04:09:09;;;;;;;16.60;13.50;;;;;;;8.43;88.45;98916.34;105895;1299;22902;-88
2022/10/18 04:11:37;;;;;;;18.30;15.00;;;;;;;8.29;88.59;98914.73;105741;1317;22126;-89
2022/10/18 04:14:05;;;;;;;21.70;15.60;;;;;;;8.16;88.96;98908.30;105726;1317;22202;-89
2022/10/18 04:16:33;;;;;;;19.40;17.50;;;;;;;8.17;88.92;98904.98;105381;1323;22714;-88
2022/10/18 04:19:06;;;;;;;15.40;13.60;;;;;;;8.17;89.23;98907.52;105850;1317;22080;-88
2022/10/18 04:21:34;;;;;;;21.00;17.00;;;;;;;8.08;89.31;98907.66;105880;1317;22188;-88
2022/10/18 04:24:02;;;;;;;18.10;16.00;;;;;;;8.04;89.41;98910.21;105446;1324;22214;-89
2022/10/18 04:26:30;;;;;;;22.60;17.00;;;;;;;7.99;89.49;98917.04;105637;1302;22203;-86
2022/10/18 04:28:58;;;;;;;19.30;16.40;;;;;;;7.86;90.13;98915.55;105818;1299;22148;-87
2022/10/18 04:31:26;;;;;;;23.60;16.30;;;;;;;7.76;90.25;98916.75;105450;1324;22135;-89
2022/10/18 04:33:54;;;;;;;18.40;15.00;;;;;;;7.71;91.12;98916.98;105467;1323;22195;-87
2022/10/18 04:36:22;;;;;;;20.40;16.10;;;;;;;7.68;90.97;98920.27;105643;1302;22212;-88
2022/10/18 04:38:50;;;;;;;19.40;15.40;;;;;;;7.67;90.82;98919.52;105264;1324;22134;-88
2022/10/18 04:41:18;;;;;;;21.50;19.20;;;;;;;7.62;90.83;98920.36;105300;1324;22126;-88
2022/10/18 04:43:45;;;;;;;20.60;18.40;;;;;;;7.60;90.92;98926.48;105649;1309;22860;-87
2022/10/18 04:46:13;;;;;;;31.50;20.60;;;;;;;7.59;90.81;98926.20;105435;1322;22437;-86
2022/10/18 04:48:41;;;;;;;24.20;19.00;;;;;;;7.55;91.14;98926.05;105440;1323;22160;-88
2022/10/18 04:51:09;;;;;;;24.40;17.20;;;;;;;7.51;91.67;98925.10;105960;1316;22211;-87
2022/10/18 04:53:37;;;;;;;20.70;15.80;;;;;;;7.47;91.96;98925.61;106069;1295;22217;-90
2022/10/18 04:56:05;;;;;;;24.30;22.00;;;;;;;7.46;92.18;98927.84;105676;1322;22213;-85
2022/10/18 04:58:33;;;;;;;22.40;20.20;;;;;;;7.44;92.25;98932.11;105183;1324;22223;-90
2022/10/18 05:01:06;;;;;;;22.20;17.30;;;;;;;7.43;92.48;98931.46;105210;1324;22411;-88
2022/10/18 05:03:34;;;;;;;23.50;15.20;;;;;;;7.58;92.96;98929.14;105201;1320;22096;-88
2022/10/18 05:06:02;;;;;;;17.40;14.60;;;;;;;7.88;93.17;98927.26;105244;1319;22123;-92
2022/10/18 05:08:32;;;;;;;20.10;14.90;;;;;;;8.19;93.68;98927.08;105652;1324;22204;-84
2022/10/18 05:11:02;;;;;;;20.60;15.50;;;;;;;8.47;93.64;98922.76;105578;1323;23022;-90
2022/10/18 05:13:30;;;;;;;22.90;17.90;;;;;;;8.67;93.22;98924.23;105508;1322;22112;-87
2022/10/18 05:15:59;;;;;;;21.10;17.90;;;;;;;8.64;92.32;98926.04;105763;1317;22193;-92
2022/10/18 05:18:27;;;;;;;21.90;17.90;;;;;;;8.43;92.00;98926.02;105881;1317;22185;-93
2022/10/18 05:20:58;;;;;;;21.80;18.30;;;;;;;8.27;92.38;98927.29;106166;1305;22246;-93
2022/10/18 05:23:29;;;;;;;21.70;17.40;;;;;;;8.29;93.13;98928.48;105857;1302;21878;-91
2022/10/18 05:26:01;;;;;;;16.60;14.80;;;;;;;8.52;93.89;98935.31;106089;1309;22200;-88
2022/10/18 05:28:29;;;;;;;14.30;12.30;;;;;;;8.81;93.63;98929.13;105682;1323;22118;-91
2022/10/18 05:31:12;;;;;;;19.20;14.40;;;;;;;9.10;92.99;98923.49;105584;1322;22131;-90
2022/10/18 05:33:40;;;;;;;18.80;14.00;;;;;;;9.32;92.55;98924.11;105510;1318;22219;-87
2022/10/18 05:36:09;;;;;;;14.50;12.70;;;;;;;9.51;91.93;98922.54;105264;1323;22202;-90
2022/10/18 05:38:40;;;;;;;14.10;11.40;;;;;;;9.71;91.74;98926.02;105912;1315;22107;-92
2022/10/18 05:41:09;;;;;;;14.70;11.50;;;;;;;9.88;91.11;98926.23;105771;1316;22175;-90
2022/10/18 05:43:38;;;;;;;13.70;11.40;;;;;;;10.02;90.53;98926.13;105181;1323;22236;-90
2022/10/18 05:46:07;;;;;;;15.90;11.00;;;;;;;10.17;90.43;98917.77;105636;1322;22357;-83
2022/10/18 05:48:49;;;;;;;13.50;10.00;;;;;;;10.33;90.40;98912.98;105607;1323;22110;-87
2022/10/18 05:51:18;;;;;;;13.20;11.00;;;;;;;10.48;90.55;98913.33;105123;1324;22095;-91
2022/10/18 05:53:46;;;;;;;13.20;11.10;;;;;;;10.60;90.50;98915.95;105121;1324;22206;-89
2022/10/18 05:56:13;;;;;;;18.30;12.70;;;;;;;10.69;90.35;98918.90;105654;1316;22870;-87
2022/10/18 05:58:41;;;;;;;12.60;11.20;;;;;;;10.78;90.04;98919.30;105772;1315;22275;-89
2022/10/18 06:01:09;;;;;;;13.00;10.80;;;;;;;10.88;89.87;98913.70;105164;1324;22115;-85
2022/10/18 06:03:37;;;;;;;16.90;12.10;;;;;;;10.97;89.05;98917.50;105219;1324;22135;-91
2022/10/18 06:06:09;;;;;;;18.00;12.10;;;;;;;11.03;88.91;98917.84;105575;1323;22210;-89
2022/10/18 06:08:39;;;;;;;16.90;11.50;;;;;;;11.12;89.16;98917.59;105214;1324;22120;-88
2022/10/18 06:11:11;;;;;;;14.20;12.10;;;;;;;11.21;89.31;98919.11;105393;1323;22215;-87
2022/10/18 06:13:41;;;;;;;17.50;11.90;;;;;;;11.30;88.34;98921.55;105535;1323;22212;-86
2022/10/18 06:16:10;;;;;;;13.70;11.20;;;;;;;11.37;87.02;98921.40;105916;1316;22191;-88
2022/10/18 06:18:39;;;;;;;20.00;11.60;;;;;;;11.46;86.32;98920.81;105885;1316;22100;-87
2022/10/18 06:21:08;;;;;;;13.50;11.90;;;;;;;11.53;86.26;98924.00;105762;1323;22276;-93
2022/10/18 06:23:36;;;;;;;12.90;11.10;;;;;;;11.59;86.58;98916.73;105202;1311;22203;-90
2022/10/18 06:26:06;;;;;;;16.10;12.40;;;;;;;11.66;86.82;98917.77;105615;1323;22100;-90
2022/10/18 06:28:35;;;;;;;13.00;11.50;;;;;;;11.74;86.98;98920.62;105563;1324;22104;-88
2022/10/18 06:31:04;;;;;;;20.00;12.60;;;;;;;11.81;86.86;98925.02;105600;1314;22363;-88
2022/10/18 06:33:34;;;;;;;19.10;11.90;;;;;;;11.86;86.69;98926.23;105816;1317;22153;-92
2022/10/18 06:36:09;;;;;;;17.80;11.50;;;;;;;11.92;86.67;98925.12;105620;1301;22389;-89
2022/10/18 06:38:40;;;;;;;18.50;11.90;;;;;;;12.00;84.93;98924.46;105199;1323;22216;-83
2022/10/18 06:41:08;;;;;;;14.70;12.00;;;;;;;12.05;85.20;98927.27;105795;1315;22225;-88
2022/10/18 06:43:36;;;;;;;18.50;12.30;;;;;;;12.10;85.41;98929.67;105997;1298;22067;-85
2022/10/18 06:46:07;;;;;;;22.80;13.20;;;;;;;12.15;85.32;98929.42;105521;1323;22173;-87
2022/10/18 06:48:35;;;;;;;16.30;12.60;;;;;;;12.20;84.79;98933.44;105201;1324;22217;-85
2022/10/18 06:51:05;;;;;;;27.90;14.80;;;;;;;12.22;84.21;98933.17;105876;1309;22174;-83
2022/10/18 06:53:35;;;;;;;20.20;15.20;;;;;;;12.26;84.35;98930.95;105718;1315;21865;-87
2022/10/18 06:56:15;;;;;;;23.60;16.10;;;;;;;12.34;84.75;98934.05;105770;1298;22211;-89
2022/10/18 06:58:43;;;;;;;31.40;18.40;;;;;;;12.46;84.93;98929.77;105417;1323;22953;-86
2022/10/18 07:01:14;;;;;;;26.00;18.50;;;;;;;12.55;84.76;98929.99;105723;1317;22168;-87
2022/10/18 07:03:44;;;;;;;27.00;19.80;;;;;;;12.62;84.66;98929.01;105545;1315;22825;-86
2022/10/18 07:06:14;;;;;;;31.10;20.70;;;;;;;12.68;84.58;98925.74;105446;1323;22108;-85
2022/10/18 07:08:42;;;;;;;37.70;19.30;;;;;;;12.74;84.53;98923.90;105093;1323;22134;-86
2022/10/18 07:11:19;;;;;;;24.60;18.50;;;;;;;12.80;84.59;98920.86;105555;1309;22912;-85
2022/10/18 07:13:47;;;;;;;27.60;18.80;;;;;;;12.87;84.59;98920.41;105484;1323;22093;-89
2022/10/18 07:16:17;;;;;;;28.20;20.70;;;;;;;12.92;84.36;98917.70;105872;1317;22211;-89
2022/10/18 07:18:49;;;;;;;22.70;18.10;;;;;;;13.00;84.09;98915.92;105578;1323;22187;-87
2022/10/18 07:21:20;;;;;;;25.20;18.00;;;;;;;13.09;83.87;98916.84;105824;1307;22019;-86
2022/10/18 07:23:48;;;;;;;28.60;18.80;;;;;;;13.21;84.08;98915.60;105996;1316;22175;-86
2022/10/18 07:26:28;;;;;;;31.00;20.40;;;;;;;13.33;84.01;98915.83;105592;1324;22210;-90
2022/10/18 07:29:14;;;;;;;25.70;17.30;;;;;;;13.44;83.26;98923.22;105498;1324;22190;-86
2022/10/18 07:31:42;;;;;;;20.60;18.40;;;;;;;13.53;83.12;98921.63;105959;1303;22104;-88
2022/10/18 07:34:11;;;;;;;26.60;18.10;;;;;;;13.59;81.94;98921.44;105543;1323;22904;-90
2022/10/18 07:36:40;;;;;;;25.20;19.30;;;;;;;13.66;82.05;98920.69;105627;1311;22276;-86
2022/10/18 07:39:09;;;;;;;30.10;20.50;;;;;;;13.72;81.77;98919.04;105589;1316;22331;-89
2022/10/18 07:41:37;;;;;;;24.20;20.30;;;;;;;13.77;81.04;98926.48;105159;1318;22160;-90
2022/10/18 07:44:05;;;;;;;25.20;18.80;;;;;;;13.82;81.35;98926.45;105578;1323;22211;-88
2022/10/18 07:46:33;;;;;;;21.70;17.20;;;;;;;13.90;80.63;98926.77;105484;1318;22124;-90
2022/10/18 07:49:01;;;;;;;26.30;15.80;;;;;;;13.96;78.65;98921.41;105545;1322;22264;-85
2022/10/18 07:51:31;;;;;;;21.60;15.10;;;;;;;14.03;79.47;98921.02;105996;1309;22153;-85
2022/10/18 07:53:59;;;;;;;18.10;13.80;;;;;;;14.09;77.28;98921.10;105545;1323;22393;-86
2022/10/18 07:56:27;;;;;;;16.60;12.60;;;;;;;14.13;76.90;98924.50;105300;1309;22204;-86
2022/10/18 07:58:55;;;;;;;21.90;13.50;;;;;;;14.16;75.67;98924.13;105605;1319;22205;-86
2022/10/18 08:01:24;;;;;;;19.10;13.40;;;;;;;14.21;75.22;98917.55;105392;1324;22066;-85
2022/10/18 08:03:53;;;;;;;19.40;13.80;;;;;;;14.27;76.12;98912.05;105118;1321;22113;-88
2022/10/18 08:06:22;;;;;;;23.50;17.00;;;;;;;14.35;75.84;98909.70;105846;1309;22088;-84
2022/10/18 08:08:51;;;;;;;24.10;18.60;;;;;;;14.42;75.30;98911.36;105796;1315;22178;-86
2022/10/18 08:11:21;;;;;;;18.20;14.90;;;;;;;14.49;74.47;98907.17;105495;1302;22079;-85
2022/10/18 08:13:50;;;;;;;17.40;14.60;;;;;;;14.57;75.95;98904.34;105895;1316;22062;-87
2022/10/18 08:16:21;;;;;;;25.20;14.30;;;;;;;14.66;74.66;98901.52;105679;1315;22244;-87
2022/10/18 08:18:49;;;;;;;17.50;12.50;;;;;;;14.75;73.52;98900.45;105725;1302;22190;-86
2022/10/18 08:21:19;;;;;;;15.90;12.70;;;;;;;14.84;72.97;98900.19;105708;1317;22267;-89
2022/10/18 08:23:48;;;;;;;20.30;13.80;;;;;;;14.93;72.59;98895.53;105552;1324;22229;-88
2022/10/18 08:26:19;;;;;;;16.60;13.50;;;;;;;15.03;72.57;98893.06;105054;1318;22134;-87
2022/10/18 08:28:47;;;;;;;15.20;13.40;;;;;;;15.11;72.21;98888.82;105606;1311;22085;-90
2022/10/18 08:31:25;;;;;;;20.80;13.40;;;;;;;15.21;72.03;98886.60;105957;1306;22195;-90
2022/10/18 08:33:55;;;;;;;17.00;12.70;;;;;;;15.30;71.91;98883.40;105954;1296;22205;-87
2022/10/18 08:36:23;;;;;;;20.10;10.70;;;;;;;15.41;72.60;98876.27;105786;1306;22853;-88
2022/10/18 08:38:51;;;;;;;17.40;10.80;;;;;;;15.54;71.43;98874.52;105896;1316;22267;-91
2022/10/18 08:41:28;;;;;;;15.30;11.50;;;;;;;15.63;71.95;98867.23;105574;1323;22210;-89
2022/10/18 08:44:15;;;;;;;15.00;9.20;;;;;;;15.73;70.89;98868.48;105829;1302;22096;-89
2022/10/18 08:46:49;;;;;;;14.20;10.60;;;;;;;15.80;71.44;98865.38;105697;1291;22106;-91
2022/10/18 08:49:29;;;;;;;14.80;11.10;;;;;;;15.88;71.74;98862.04;105786;1314;22191;-90
2022/10/18 08:51:57;;;;;;;20.20;10.40;;;;;;;15.99;71.20;98861.02;106106;1308;22197;-92
2022/10/18 08:54:38;;;;;;;18.70;9.70;;;;;;;16.09;69.58;98858.52;105621;1309;22213;-89
2022/10/18 08:57:14;;;;;;;18.90;9.80;;;;;;;16.13;68.84;98859.29;105597;1324;22708;-84
2022/10/18 08:59:43;;;;;;;19.20;9.00;;;;;;;16.22;68.49;98860.48;105646;1307;22118;-89
2022/10/18 09:02:53;;;;;;;15.90;9.30;;;;;;;16.29;67.08;98858.52;105610;1322;22134;-91
2022/10/18 09:05:29;;;;;;;14.70;9.30;;;;;;;16.34;65.76;98859.54;106143;1305;22234;-91
2022/10/18 09:08:08;;;;;;;12.20;8.80;;;;;;;16.42;65.55;98853.79;106139;1301;22176;-91
2022/10/18 09:10:48;;;;;;;10.80;8.80;;;;;;;16.52;65.56;98852.16;105523;1324;22233;-87
2022/10/18 09:13:54;;;;;;;13.00;8.50;;;;;;;16.58;65.70;98847.29;105533;1311;22193;-89
2022/10/18 09:16:31;;;;;;;13.80;7.80;;;;;;;16.64;63.07;98841.41;105549;1322;22255;-89
2022/10/18 09:19:20;;;;;;;17.30;8.80;;;;;;;16.70;61.97;98843.96;105776;1317;22158;-89
2022/10/18 09:21:59;;;;;;;13.10;8.10;;;;;;;16.76;60.92;98840.55;105623;1324;22158;-87
2022/10/18 09:24:45;;;;;;;13.80;8.10;;;;;;;16.82;61.59;98839.58;105791;1316;22188;-90
2022/10/18 09:27:17;;;;;;;18.70;8.60;;;;;;;16.93;62.11;98837.36;106059;1299;22091;-88
2022/10/18 09:30:04;;;;;;;16.20;9.00;;;;;;;17.05;60.75;98836.11;105897;1315;22163;-89
2022/10/18 09:32:42;;;;;;;16.70;8.10;;;;;;;17.13;60.93;98841.86;105951;1315;22824;-89
2022/10/18 09:35:18;;;;;;;15.80;8.70;;;;;;;17.20;60.85;98839.92;105977;1317;22690;-87
2022/10/18 09:37:46;;;;;;;20.90;10.60;;;;;;;17.29;60.52;98838.77;105501;1324;22107;-88
2022/10/18 09:40:27;;;;;;;14.70;8.20;;;;;;;17.38;60.24;98835.16;105769;1302;22193;-88
2022/10/18 09:43:00;;;;;;;19.30;13.40;;;;;;;17.49;60.62;98833.74;105418;1324;22219;-83
2022/10/18 09:45:31;;;;;;;15.20;9.70;;;;;;;17.60;59.29;98833.48;105363;1323;22086;-87
2022/10/18 09:48:07;;;;;;;18.80;9.50;;;;;;;17.70;60.76;98828.21;105359;1324;22160;-84
2022/10/18 09:50:54;;;;;;;11.80;8.90;;;;;;;17.83;60.48;98821.04;105886;1317;22166;-86
2022/10/18 09:53:53;;;;;;;18.90;9.80;;;;;;;17.94;60.27;98815.79;105534;1316;22858;-86
2022/10/18 09:56:28;;;;;;;13.60;7.30;;;;;;;18.05;58.31;98810.98;105540;1315;22069;-85
2022/10/18 09:58:56;;;;;;;11.10;8.50;;;;;;;18.14;59.49;98805.36;105871;1305;22826;-86
2022/10/18 10:01:27;;;;;;;15.20;10.90;;;;;;;18.26;58.69;98799.92;105899;1303;22184;-86
2022/10/18 10:03:55;;;;;;;14.30;8.40;;;;;;;18.33;57.03;98800.57;105895;1317;22148;-86
2022/10/18 10:06:25;;;;;;;14.90;10.00;;;;;;;18.34;56.15;98799.77;105319;1324;164443;-86
2022/10/18 10:08:58;;;;;;;16.20;8.70;;;;;;;18.36;55.40;98796.67;105932;1317;22244;-86
2022/10/18 10:11:44;;;;;;;12.90;8.40;;;;;;;18.38;56.14;98796.48;105927;1317;22071;-86
2022/10/18 10:14:21;;;;;;;14.10;10.30;;;;;;;18.49;55.73;98793.11;105122;1324;22097;-85
2022/10/18 10:16:52;;;;;;;9.40;8.10;;;;;;;18.63;54.23;98793.36;105032;1306;22230;-82
2022/10/18 10:19:26;;;;;;;12.80;7.10;;;;;;;18.70;55.53;98789.89;105470;1322;22109;-87
2022/10/18 10:21:59;;;;;;;11.50;6.70;;;;;;;18.80;53.47;98787.81;105861;1317;22220;-86
2022/10/18 10:24:46;;;;;;;10.10;7.10;;;;;;;18.83;52.80;98782.85;105128;1324;22096;-88
2022/10/18 10:27:23;;;;;;;9.70;7.00;;;;;;;18.88;51.75;98770.48;105673;1303;22100;-87
2022/10/18 10:29:55;;;;;;;10.20;6.20;;;;;;;18.90;49.72;98773.58;105401;1323;22946;-86
2022/10/18 10:32:28;;;;;;;13.40;6.70;;;;;;;18.89;50.57;98766.23;105761;1309;22202;-86
2022/10/18 10:34:57;;;;;;;13.10;6.50;;;;;;;18.96;49.94;98766.73;105029;1324;22212;-88
2022/10/18 10:37:30;;;;;;;10.40;5.60;;;;;;;19.03;48.46;98761.31;105423;1323;22247;-90
2022/10/18 10:40:17;;;;;;;21.00;13.60;;;;;;;19.05;48.56;98759.56;105506;1322;22216;-88
2022/10/18 10:42:56;;;;;;;12.90;6.90;;;;;;;19.12;50.36;98753.71;105498;1324;22201;-86
2022/10/18 10:46:08;;;;;;;13.90;7.80;;;;;;;19.29;49.89;98746.25;105502;1319;23001;-89
2022/10/18 10:48:46;;;;;;;11.00;6.10;;;;;;;19.39;49.54;98744.16;105851;1285;22224;31
2022/10/18 10:51:17;;;;;;;14.90;6.80;;;;;;;19.41;48.49;98736.04;104055;1278;22221;-92
2022/10/18 10:53:59;;;;;;;10.80;6.40;;;;;;;19.43;48.43;98731.90;105199;1324;22199;-94
2022/10/18 10:56:31;;;;;;;9.20;6.60;;;;;;;19.47;48.37;98727.19;105224;1317;22117;-90
2022/10/18 10:59:14;;;;;;;12.70;6.30;;;;;;;19.52;48.23;98727.61;105710;1317;22202;-85
2022/10/18 11:01:44;;;;;;;13.00;6.10;;;;;;;19.57;48.65;98724.17;105512;1317;22186;-90
2022/10/18 11:04:27;;;;;;;8.20;5.90;;;;;;;19.67;47.40;98719.00;105479;1324;21936;-87
2022/10/18 11:07:03;;;;;;;9.10;5.80;;;;;;;19.73;46.56;98713.95;105165;1324;22302;-91
2022/10/18 11:10:09;;;;;;;15.30;7.00;;;;;;;19.78;45.77;98707.02;105297;1324;22172;-88
2022/10/18 11:12:46;;;;;;;10.70;5.80;;;;;;;19.80;45.47;98703.99;105065;1316;23208;-89
2022/10/18 11:15:39;;;;;;;10.70;5.60;;;;;;;19.85;45.87;98695.02;104618;1332;22382;-90
2022/10/18 11:18:18;;;;;;;11.00;6.30;;;;;;;19.96;45.41;98695.67;104658;1324;22270;-93
2022/10/18 11:20:51;;;;;;;11.40;6.10;;;;;;;20.04;44.93;98689.41;104738;1313;22312;-89
2022/10/18 11:23:24;;;;;;;11.70;6.30;;;;;;;20.10;44.31;98686.98;104814;1314;22314;-88
2022/10/18 11:25:55;;;;;;;13.70;6.60;;;;;;;20.18;43.91;98683.63;104849;1323;23182;-90
2022/10/18 11:28:31;;;;;;;8.50;5.50;;;;;;;20.27;44.30;98681.79;104530;1332;22159;-88
2022/10/18 11:31:17;;;;;;;9.10;5.90;;;;;;;20.41;44.27;98675.27;104895;1325;22238;-88
2022/10/18 11:34:08;;;;;;;10.60;6.20;;;;;;;20.60;43.69;98673.45;104560;1328;22252;-89
2022/10/18 11:36:37;;;;;;;8.90;5.90;;;;;;;20.69;42.13;98670.57;104888;1307;22201;-89
2022/10/18 11:39:40;;;;;;;13.30;5.90;;;;;;;20.68;41.63;98672.70;105172;1308;22362;-84